createdAt,value
2019-05-02T00:01:25.419Z,8.50
2019-05-02T00:03:51.669Z,10.20
2019-05-02T00:06:18.036Z,9.50
2019-05-02T00:08:44.290Z,11.13
2019-05-02T00:11:11.430Z,10.97
2019-05-02T00:13:37.688Z,8.23
2019-05-02T00:16:04.118Z,8.97
2019-05-02T00:18:32.076Z,7.13
2019-05-02T00:21:01.418Z,7.63
2019-05-02T00:23:27.906Z,7.80
2019-05-02T00:25:55.130Z,8.73
2019-05-02T00:28:21.378Z,9.40
2019-05-02T00:30:47.797Z,8.70
2019-05-02T00:33:14.312Z,9.77
2019-05-02T00:35:45.524Z,8.77
2019-05-02T00:38:09.088Z,10.40
2019-05-02T00:40:35.329Z,8.50
2019-05-02T00:43:01.482Z,9.07
2019-05-02T00:45:27.842Z,8.43
2019-05-02T00:48:02.905Z,9.13
2019-05-02T00:50:33.882Z,8.57
2019-05-02T00:53:00.135Z,8.90
2019-05-02T00:55:28.888Z,8.73
2019-05-02T00:57:55.752Z,9.60
2019-05-02T01:00:22.897Z,8.97
2019-05-02T01:02:55.677Z,8.77
2019-05-02T01:05:21.926Z,10.93
2019-05-02T01:07:48.097Z,8.97
2019-05-02T01:10:17.338Z,9.10
2019-05-02T01:12:44.382Z,10.50
2019-05-02T01:15:11.790Z,8.93
2019-05-02T01:17:38.079Z,7.77
2019-05-02T01:20:04.666Z,8.03
2019-05-02T01:22:31.201Z,9.40
2019-05-02T01:24:57.573Z,9.33
2019-05-02T01:27:41.130Z,8.93
2019-05-02T01:30:17.897Z,9.33
2019-05-02T01:33:09.662Z,8.13
2019-05-02T01:35:50.341Z,9.33
2019-05-02T01:38:42.199Z,8.60
2019-05-02T01:41:08.536Z,8.53
2019-05-02T01:43:34.788Z,8.87
2019-05-02T01:46:01.085Z,9.40
2019-05-02T01:48:27.414Z,9.17
2019-05-02T01:50:53.691Z,11.90
2019-05-02T01:53:20.094Z,8.80
2019-05-02T01:55:46.346Z,10.40
2019-05-02T01:58:15.024Z,8.97
2019-05-02T02:00:44.840Z,8.80
2019-05-02T02:03:10.402Z,9.73
2019-05-02T02:05:36.825Z,10.13
2019-05-02T02:08:03.230Z,8.50
2019-05-02T02:10:29.492Z,9.67
2019-05-02T02:13:03.214Z,10.00
2019-05-02T02:15:25.143Z,10.60
2019-05-02T02:17:52.674Z,9.90
2019-05-02T02:20:21.096Z,11.60
2019-05-02T02:22:58.042Z,8.37
2019-05-02T02:25:32.334Z,11.40
2019-05-02T02:27:59.630Z,12.13
2019-05-02T02:30:26.849Z,10.67
2019-05-02T02:32:53.563Z,10.73
2019-05-02T02:35:19.743Z,9.47
2019-05-02T02:37:52.968Z,9.80
2019-05-02T02:40:14.172Z,10.80
2019-05-02T02:42:40.759Z,9.50
2019-05-02T02:45:18.948Z,10.60
2019-05-02T02:47:42.841Z,11.33
2019-05-02T02:50:09.102Z,10.67
2019-05-02T02:52:37.771Z,10.87
2019-05-02T02:55:03.525Z,10.60
2019-05-02T02:57:29.907Z,10.77
2019-05-02T03:00:06.402Z,11.80
2019-05-02T03:02:24.339Z,12.67
2019-05-02T03:04:50.606Z,12.23
2019-05-02T03:07:26.197Z,12.30
2019-05-02T03:09:45.702Z,13.80
2019-05-02T03:12:36.105Z,12.13
2019-05-02T03:15:04.457Z,10.70
2019-05-02T03:17:30.742Z,12.10
2019-05-02T03:20:01.488Z,10.07
2019-05-02T03:22:25.235Z,10.50
2019-05-02T03:24:51.497Z,14.53
2019-05-02T03:27:17.778Z,11.93
2019-05-02T03:29:44.644Z,13.67
2019-05-02T03:32:16.036Z,13.63
2019-05-02T03:34:52.808Z,13.63
2019-05-02T03:37:11.372Z,12.80
2019-05-02T03:39:37.127Z,14.17
2019-05-02T03:42:04.986Z,12.60
2019-05-02T03:44:31.518Z,13.60
2019-05-02T03:47:01.931Z,13.50
2019-05-02T03:49:26.190Z,10.53
2019-05-02T03:51:56.006Z,12.00
2019-05-02T03:54:20.623Z,12.47
2019-05-02T03:56:51.078Z,12.13
2019-05-02T03:59:15.289Z,11.97
2019-05-02T04:01:43.170Z,11.47
2019-05-02T04:04:14.202Z,10.30
2019-05-02T04:06:37.731Z,12.23
2019-05-02T04:09:05.363Z,10.90
2019-05-02T04:11:37.854Z,12.73
2019-05-02T04:13:59.893Z,11.73
2019-05-02T04:16:27.674Z,9.93
2019-05-02T04:19:04.006Z,13.30
2019-05-02T04:21:30.355Z,15.23
2019-05-02T04:24:07.217Z,15.93
2019-05-02T04:26:24.886Z,12.53
2019-05-02T04:28:52.106Z,16.77
2019-05-02T04:31:25.044Z,15.40
2019-05-02T04:33:47.676Z,14.80
2019-05-02T04:36:17.397Z,14.17
2019-05-02T04:38:47.723Z,13.57
2019-05-02T04:41:10.198Z,14.80
2019-05-02T04:43:40.599Z,17.43
2019-05-02T04:46:09.406Z,17.13
2019-05-02T04:48:34.749Z,15.77
2019-05-02T04:51:10.320Z,16.50
2019-05-02T04:53:36.711Z,17.40
2019-05-02T04:56:04.463Z,14.73
2019-05-02T04:58:29.567Z,17.30
2019-05-02T05:00:59.276Z,17.20
2019-05-02T05:03:22.529Z,16.83
2019-05-02T05:05:48.790Z,15.97
2019-05-02T05:08:17.480Z,15.40
2019-05-02T05:10:45.043Z,16.33
2019-05-02T05:13:12.050Z,15.80
2019-05-02T05:15:48.433Z,16.77
2019-05-02T05:18:12.597Z,16.77
2019-05-02T05:20:38.489Z,15.67
2019-05-02T05:23:04.397Z,16.07
2019-05-02T05:25:41.910Z,13.30
2019-05-02T05:28:09.088Z,14.07
2019-05-02T05:30:39.585Z,13.77
2019-05-02T05:33:03.689Z,13.97
2019-05-02T05:35:29.877Z,14.73
2019-05-02T05:37:57.343Z,15.80
2019-05-02T05:40:30.391Z,15.53
2019-05-02T05:42:52.097Z,15.30
2019-05-02T05:45:18.381Z,15.80
2019-05-02T05:47:44.979Z,15.90
2019-05-02T05:50:11.239Z,13.40
2019-05-02T05:52:38.795Z,13.80
2019-05-02T05:55:07.678Z,15.03
2019-05-02T05:57:33.789Z,13.10
2019-05-02T06:00:04.003Z,13.93
2019-05-02T06:02:28.446Z,13.60
2019-05-02T06:04:55.370Z,13.97
2019-05-02T06:07:22.973Z,14.00
2019-05-02T06:09:49.285Z,11.90
2019-05-02T06:12:15.516Z,15.00
2019-05-02T06:14:41.702Z,12.30
2019-05-02T06:17:07.974Z,12.63
2019-05-02T06:19:34.125Z,12.33
2019-05-02T06:22:00.436Z,12.80
2019-05-02T06:24:26.597Z,13.87
2019-05-02T06:26:52.924Z,13.70
2019-05-02T06:29:20.887Z,12.23
2019-05-02T06:31:47.574Z,13.37
2019-05-02T06:34:14.002Z,13.57
2019-05-02T06:36:40.192Z,12.90
2019-05-02T06:39:06.615Z,13.43
2019-05-02T06:41:32.970Z,14.20
2019-05-02T06:43:59.370Z,13.50
2019-05-02T06:46:27.693Z,12.90
2019-05-02T06:48:53.913Z,12.00
2019-05-02T06:51:21.129Z,13.30
2019-05-02T06:53:48.960Z,12.77
2019-05-02T06:56:15.455Z,12.87
2019-05-02T06:58:43.232Z,12.17
2019-05-02T07:01:09.783Z,12.57
2019-05-02T07:03:36.062Z,12.00
2019-05-02T07:06:03.020Z,11.33
2019-05-02T07:08:30.845Z,12.63
2019-05-02T07:11:01.398Z,12.33
2019-05-02T07:13:25.713Z,11.37
2019-05-02T07:16:36.532Z,12.40
2019-05-02T07:18:49.647Z,10.77
2019-05-02T07:21:17.323Z,11.33
2019-05-02T07:23:48.717Z,11.13
2019-05-02T07:26:15.391Z,10.83
2019-05-02T07:28:45.735Z,11.40
2019-05-02T07:31:12.174Z,11.00
2019-05-02T07:33:37.890Z,9.33
2019-05-02T07:36:05.216Z,11.00
2019-05-02T07:38:31.474Z,9.83
2019-05-02T07:40:58.558Z,8.97
2019-05-02T07:43:25.110Z,9.37
2019-05-02T07:45:51.390Z,9.73
2019-05-02T07:48:18.987Z,9.73
2019-05-02T07:50:46.485Z,8.53
2019-05-02T07:53:14.374Z,9.63
2019-05-02T07:55:42.646Z,9.77
2019-05-02T07:58:08.920Z,10.33
2019-05-02T08:00:37.034Z,9.47
2019-05-02T08:03:05.056Z,10.70
2019-05-02T08:05:33.977Z,9.80
2019-05-02T08:08:00.265Z,10.13
2019-05-02T08:10:26.834Z,9.40
2019-05-02T08:12:52.974Z,10.50
2019-05-02T08:15:19.138Z,9.93
2019-05-02T08:17:53.183Z,9.73
2019-05-02T08:20:19.262Z,10.93
2019-05-02T08:22:44.139Z,9.27
2019-05-02T08:25:10.877Z,9.37
2019-05-02T08:27:57.670Z,9.67
2019-05-02T08:30:26.847Z,10.20
2019-05-02T08:32:53.241Z,9.97
2019-05-02T08:35:19.495Z,10.03
2019-05-02T08:37:45.757Z,10.30
2019-05-02T08:40:12.309Z,9.80
2019-05-02T08:42:38.587Z,9.70
2019-05-02T08:45:05.674Z,9.27
2019-05-02T08:47:32.293Z,9.10
2019-05-02T08:49:58.564Z,8.17
2019-05-02T08:52:24.751Z,9.80
2019-05-02T08:54:50.993Z,9.30
2019-05-02T08:57:17.245Z,9.50
2019-05-02T08:59:43.822Z,8.77
2019-05-02T09:02:10.100Z,8.40
2019-05-02T09:04:36.507Z,8.17
2019-05-02T09:07:02.804Z,9.70
2019-05-02T09:09:29.532Z,9.13
2019-05-02T09:12:08.939Z,8.43
2019-05-02T09:14:24.097Z,9.47
2019-05-02T09:16:52.246Z,8.80
2019-05-02T09:19:21.598Z,8.27
2019-05-02T09:21:46.809Z,8.37
2019-05-02T09:24:20.674Z,8.50
2019-05-02T09:26:42.593Z,8.70
2019-05-02T09:29:09.010Z,7.60
2019-05-02T09:31:42.304Z,6.63
2019-05-02T09:34:05.688Z,7.00
2019-05-02T09:36:32.349Z,6.10
2019-05-02T09:38:58.713Z,5.47
2019-05-02T09:41:36.274Z,7.67
2019-05-02T09:44:02.863Z,6.57
2019-05-02T09:46:29.279Z,7.13
2019-05-02T09:48:57.014Z,6.80
2019-05-02T09:51:23.739Z,6.13
2019-05-02T09:53:52.217Z,6.17
2019-05-02T09:56:18.206Z,5.60
2019-05-02T09:58:44.721Z,5.27
2019-05-02T10:01:25.957Z,7.27
2019-05-02T10:03:52.546Z,6.27
2019-05-02T10:06:18.886Z,7.07
2019-05-02T10:08:46.548Z,7.50
2019-05-02T10:11:17.041Z,7.00
2019-05-02T10:13:42.444Z,6.23
2019-05-02T10:16:08.965Z,6.67
2019-05-02T10:18:35.233Z,6.67
2019-05-02T10:21:03.048Z,5.17
2019-05-02T10:23:29.502Z,5.93
2019-05-02T10:25:55.745Z,5.53
2019-05-02T10:28:22.959Z,5.57
2019-05-02T10:30:53.937Z,4.20
2019-05-02T10:33:17.369Z,3.50
2019-05-02T10:35:45.205Z,3.17
2019-05-02T10:38:17.591Z,2.63
2019-05-02T10:40:39.645Z,2.80
2019-05-02T10:43:06.370Z,2.50
2019-05-02T10:45:32.949Z,2.80
2019-05-02T10:47:59.164Z,2.87
2019-05-02T10:50:29.170Z,2.30
2019-05-02T10:52:55.450Z,2.97
2019-05-02T10:55:24.131Z,2.90
2019-05-02T10:57:49.872Z,2.57
2019-05-02T11:00:17.146Z,2.77
2019-05-02T11:03:22.523Z,2.93
2019-05-02T11:05:52.804Z,3.13
2019-05-02T11:08:19.488Z,2.77
2019-05-02T11:10:45.747Z,2.90
2019-05-02T11:13:36.096Z,2.77
2019-05-02T11:16:17.041Z,2.50
2019-05-02T11:19:06.021Z,2.57
2019-05-02T11:21:32.366Z,2.60
2019-05-02T11:23:58.789Z,2.57
2019-05-02T11:26:25.406Z,2.97
2019-05-02T11:28:52.300Z,3.10
2019-05-02T11:31:19.105Z,2.27
2019-05-02T11:33:45.409Z,2.97
2019-05-02T11:36:13.745Z,2.53
2019-05-02T11:38:43.431Z,2.60
2019-05-02T11:41:08.358Z,2.50
2019-05-02T11:43:37.142Z,2.50
2019-05-02T11:46:07.254Z,2.27
2019-05-02T11:48:31.969Z,2.40
2019-05-02T11:50:58.723Z,2.77
2019-05-02T11:53:29.244Z,2.80
2019-05-02T11:55:58.336Z,3.00
2019-05-02T11:58:22.952Z,2.57
2019-05-02T12:00:49.848Z,2.50
2019-05-02T12:03:22.986Z,2.50
2019-05-02T12:05:52.541Z,2.83
2019-05-02T12:08:18.917Z,2.57
2019-05-02T12:10:45.201Z,2.40
2019-05-02T12:13:15.795Z,2.57
2019-05-02T12:15:42.142Z,2.60
2019-05-02T12:18:07.814Z,2.30
2019-05-02T12:20:36.734Z,2.53
2019-05-02T12:23:02.265Z,2.87
2019-05-02T12:25:28.445Z,2.63
2019-05-02T12:27:54.616Z,2.80
2019-05-02T12:30:22.825Z,3.13
2019-05-02T12:32:52.995Z,2.50
2019-05-02T12:35:19.126Z,2.90
2019-05-02T12:37:46.993Z,2.37
2019-05-02T12:40:13.745Z,2.77
2019-05-02T12:42:41.783Z,2.60
2019-05-02T12:45:08.280Z,3.40
2019-05-02T12:47:34.549Z,3.30
2019-05-02T12:50:02.973Z,3.20
2019-05-02T12:52:29.073Z,3.10
2019-05-02T12:54:55.438Z,2.80
2019-05-02T12:57:22.049Z,2.30
2019-05-02T12:59:48.476Z,2.80
2019-05-02T13:02:23.774Z,2.77
2019-05-02T13:04:50.101Z,2.97
2019-05-02T13:07:16.274Z,2.63
2019-05-02T13:09:42.574Z,3.13
2019-05-02T13:12:13.427Z,2.87
2019-05-02T13:14:39.773Z,2.95
2019-05-02T13:17:06.249Z,2.70
2019-05-02T13:19:39.938Z,2.57
2019-05-02T13:22:38.571Z,2.60
2019-05-02T13:25:10.473Z,2.57
2019-05-02T13:27:43.626Z,2.47
2019-05-02T13:30:09.379Z,2.47
2019-05-02T13:32:38.200Z,2.50
2019-05-02T13:35:31.514Z,2.40
2019-05-02T13:37:58.921Z,2.47
2019-05-02T13:40:34.987Z,2.37
2019-05-02T13:43:01.839Z,2.10
2019-05-02T13:45:53.465Z,2.50
2019-05-02T13:48:21.708Z,2.77
2019-05-02T13:50:48.061Z,2.53
2019-05-02T13:53:14.523Z,2.70
2019-05-02T13:55:45.975Z,2.63
2019-05-02T13:58:12.702Z,2.87
2019-05-02T14:00:43.884Z,2.80
2019-05-02T14:03:12.915Z,2.93
2019-05-02T14:05:42.192Z,2.93
2019-05-02T14:08:27.384Z,3.20
2019-05-02T14:10:56.654Z,2.70
2019-05-02T14:13:23.224Z,2.80
2019-05-02T14:15:49.637Z,2.77
2019-05-02T14:18:15.913Z,2.50
2019-05-02T14:20:42.742Z,2.60
2019-05-02T14:23:09.371Z,2.90
2019-05-02T14:25:35.737Z,2.87
2019-05-02T14:28:02.975Z,2.53
2019-05-02T14:30:37.166Z,3.30
2019-05-02T14:33:02.960Z,3.50
2019-05-02T14:35:32.647Z,3.47
2019-05-02T14:38:13.070Z,3.20
2019-05-02T14:40:48.832Z,3.20
2019-05-02T14:43:38.118Z,2.83
2019-05-02T14:46:03.017Z,3.20
2019-05-02T14:48:34.519Z,3.20
2019-05-02T14:50:58.961Z,3.10
2019-05-02T14:53:25.553Z,3.50
2019-05-02T14:55:53.218Z,3.17
2019-05-02T14:58:19.815Z,3.30
2019-05-02T15:00:48.211Z,3.03
2019-05-02T15:03:19.082Z,3.20
2019-05-02T15:05:43.319Z,3.10
2019-05-02T15:08:09.695Z,3.60
2019-05-02T15:10:43.190Z,2.93
2019-05-02T15:13:03.994Z,3.40
2019-05-02T15:15:35.273Z,3.70
2019-05-02T15:17:58.269Z,3.23
2019-05-02T15:20:36.502Z,3.60
2019-05-02T15:22:52.930Z,3.10
2019-05-02T15:25:19.197Z,3.30
2019-05-02T15:27:45.639Z,3.00
2019-05-02T15:30:13.562Z,2.80
2019-05-02T15:32:54.198Z,2.93
2019-05-02T15:35:38.483Z,3.57
2019-05-02T15:38:06.811Z,2.77
2019-05-02T15:40:42.976Z,3.20
2019-05-02T15:43:08.993Z,3.23
2019-05-02T15:45:32.002Z,3.20
2019-05-02T15:47:58.482Z,3.50
2019-05-02T15:50:25.919Z,3.40
2019-05-02T15:53:03.287Z,3.10
2019-05-02T15:55:26.131Z,3.33
2019-05-02T15:57:53.792Z,3.67
2019-05-02T16:00:25.923Z,3.60
2019-05-02T16:02:56.422Z,3.93
2019-05-02T16:05:23.486Z,3.47
2019-05-02T16:07:48.994Z,3.47
2019-05-02T16:10:15.505Z,3.30
2019-05-02T16:12:44.098Z,3.77
2019-05-02T16:15:18.220Z,3.93
2019-05-02T16:17:39.075Z,3.23
2019-05-02T16:20:13.386Z,3.40
2019-05-02T16:22:46.235Z,3.77
2019-05-02T16:25:08.264Z,3.63
2019-05-02T16:27:47.692Z,3.23
2019-05-02T16:30:15.062Z,3.43
2019-05-02T16:32:44.942Z,3.60
2019-05-02T16:35:15.364Z,3.80
2019-05-02T16:37:41.970Z,3.43
2019-05-02T16:40:08.897Z,3.60
2019-05-02T16:42:35.644Z,3.40
2019-05-02T16:45:02.618Z,3.53
2019-05-02T16:47:29.106Z,3.53
2019-05-02T16:49:56.564Z,3.77
2019-05-02T16:52:22.924Z,3.50
2019-05-02T16:54:49.473Z,3.27
2019-05-02T16:57:17.556Z,3.30
2019-05-02T16:59:43.797Z,3.30
2019-05-02T17:02:11.995Z,3.30
2019-05-02T17:04:38.325Z,3.60
2019-05-02T17:07:09.051Z,3.50
2019-05-02T17:10:14.656Z,3.30
2019-05-02T17:12:42.873Z,3.57
2019-05-02T17:15:31.435Z,3.50
2019-05-02T17:17:55.910Z,3.67
2019-05-02T17:20:22.474Z,3.33
2019-05-02T17:22:50.409Z,3.40
2019-05-02T17:25:17.018Z,3.03
2019-05-02T17:27:43.170Z,2.90
2019-05-02T17:30:11.932Z,3.37
2019-05-02T17:32:38.214Z,3.50
2019-05-02T17:35:09.990Z,3.73
2019-05-02T17:37:32.996Z,3.47
2019-05-02T17:39:59.291Z,4.00
2019-05-02T17:42:25.890Z,2.93
2019-05-02T17:44:59.365Z,3.30
2019-05-02T17:47:20.719Z,3.50
2019-05-02T17:49:47.141Z,3.33
2019-05-02T17:52:26.739Z,2.80
2019-05-02T17:54:52.841Z,2.73
2019-05-02T17:57:19.374Z,2.80
2019-05-02T17:59:45.909Z,3.47
2019-05-02T18:02:15.774Z,3.23
2019-05-02T18:04:41.961Z,3.23
2019-05-02T18:07:08.336Z,3.20
2019-05-02T18:09:35.164Z,3.20
2019-05-02T18:12:01.634Z,3.70
2019-05-02T18:14:27.902Z,3.60
2019-05-02T18:16:55.669Z,3.70
2019-05-02T18:19:24.482Z,3.90
2019-05-02T18:21:52.456Z,2.97
2019-05-02T18:24:18.760Z,4.03
2019-05-02T18:26:45.108Z,4.00
2019-05-02T18:29:12.417Z,4.20
2019-05-02T18:31:47.036Z,4.27
2019-05-02T18:34:14.372Z,3.70
2019-05-02T18:36:36.077Z,4.17
2019-05-02T18:39:05.808Z,4.30
2019-05-02T18:41:32.170Z,3.50
2019-05-02T18:43:58.475Z,4.07
2019-05-02T18:46:24.935Z,4.13
2019-05-02T18:48:51.916Z,3.77
2019-05-02T18:51:19.088Z,3.77
2019-05-02T18:53:45.434Z,3.43
2019-05-02T18:56:12.551Z,3.70
2019-05-02T18:58:41.311Z,3.73
2019-05-02T19:01:08.463Z,3.90
2019-05-02T19:03:35.488Z,4.00
2019-05-02T19:06:02.246Z,3.93
2019-05-02T19:08:38.793Z,4.00
2019-05-02T19:11:07.543Z,4.03
2019-05-02T19:13:29.990Z,4.23
2019-05-02T19:15:56.185Z,4.23
2019-05-02T19:18:22.642Z,4.33
2019-05-02T19:21:03.119Z,4.70
2019-05-02T19:23:32.014Z,4.20
2019-05-02T19:26:03.744Z,4.87
2019-05-02T19:28:34.673Z,4.87
2019-05-02T19:31:03.110Z,4.73
2019-05-02T19:33:28.918Z,4.53
2019-05-02T19:35:55.158Z,4.37
2019-05-02T19:38:24.929Z,3.57
2019-05-02T19:40:49.626Z,3.47
2019-05-02T19:43:16.058Z,3.67
2019-05-02T19:45:56.279Z,3.03
2019-05-02T19:48:27.434Z,3.60
2019-05-02T19:50:52.493Z,3.70
2019-05-02T19:53:19.676Z,3.50
2019-05-02T19:55:46.178Z,3.67
2019-05-02T19:58:12.429Z,4.40
2019-05-02T20:00:44.466Z,3.87
2019-05-02T20:03:07.055Z,3.80
2019-05-02T20:05:33.359Z,4.70
2019-05-02T20:07:59.735Z,5.23
2019-05-02T20:10:26.018Z,5.30
2019-05-02T20:12:52.870Z,5.37
2019-05-02T20:15:25.462Z,5.67
2019-05-02T20:17:48.286Z,5.27
2019-05-02T20:20:40.484Z,5.50
2019-05-02T20:23:15.616Z,4.70
2019-05-02T20:25:39.042Z,5.73
2019-05-02T20:28:03.870Z,5.70
2019-05-02T20:30:30.161Z,5.50
2019-05-02T20:32:56.322Z,5.43
2019-05-02T20:35:22.722Z,5.73
2019-05-02T20:37:48.975Z,5.57
2019-05-02T20:40:34.018Z,6.03
2019-05-02T20:43:02.401Z,4.97
2019-05-02T20:45:28.765Z,5.43
2019-05-02T20:47:55.037Z,5.30
2019-05-02T20:50:22.405Z,5.60
2019-05-02T20:52:48.747Z,5.63
2019-05-02T20:55:15.157Z,4.80
2019-05-02T20:57:42.337Z,4.70
2019-05-02T21:00:12.695Z,5.00
2019-05-02T21:02:38.994Z,4.80
2019-05-02T21:05:05.614Z,4.67
2019-05-02T21:07:43.227Z,5.50
2019-05-02T21:10:15.948Z,4.77
2019-05-02T21:12:42.349Z,5.07
2019-05-02T21:15:08.782Z,6.03
2019-05-02T21:17:35.098Z,5.60
2019-05-02T21:20:01.972Z,4.70
2019-05-02T21:22:28.474Z,5.27
2019-05-02T21:24:54.714Z,5.67
2019-05-02T21:27:21.743Z,5.37
2019-05-02T21:29:48.286Z,5.90
2019-05-02T21:32:14.560Z,5.87
2019-05-02T21:34:42.511Z,5.83
2019-05-02T21:37:08.890Z,5.43
2019-05-02T21:39:35.180Z,5.87
2019-05-02T21:42:02.365Z,5.83
2019-05-02T21:44:28.818Z,7.07
2019-05-02T21:46:55.417Z,6.23
2019-05-02T21:49:39.745Z,7.00
2019-05-02T21:52:15.096Z,5.40
2019-05-02T21:54:48.345Z,6.83
2019-05-02T21:57:16.813Z,6.60
2019-05-02T21:59:43.078Z,6.17
2019-05-02T22:02:11.886Z,7.70
2019-05-02T22:04:38.335Z,7.00
2019-05-02T22:07:04.609Z,7.40
2019-05-02T22:09:32.370Z,6.87
2019-05-02T22:11:58.826Z,7.00
2019-05-02T22:14:25.081Z,7.80
2019-05-02T22:16:53.024Z,7.00
2019-05-02T22:19:19.482Z,7.23
2019-05-02T22:21:45.742Z,7.43
2019-05-02T22:24:14.286Z,7.47
2019-05-02T22:26:43.391Z,6.67
2019-05-02T22:29:08.326Z,7.47
2019-05-02T22:31:34.561Z,7.20
2019-05-02T22:34:02.176Z,6.83
2019-05-02T22:36:28.610Z,6.73
2019-05-02T22:39:16.198Z,6.93
2019-05-02T22:41:42.518Z,7.23
2019-05-02T22:44:09.162Z,8.03
2019-05-02T22:46:53.389Z,7.70
2019-05-02T22:49:19.554Z,6.60
2019-05-02T22:51:45.732Z,7.33
2019-05-02T22:54:26.312Z,7.23
2019-05-02T22:56:40.220Z,7.27
2019-05-02T22:59:06.606Z,7.77
2019-05-02T23:01:32.846Z,7.37
2019-05-02T23:03:59.226Z,7.10
2019-05-02T23:06:25.551Z,7.30
2019-05-02T23:08:52.537Z,7.37
2019-05-02T23:11:18.902Z,7.13
2019-05-02T23:13:45.220Z,7.40
2019-05-02T23:16:11.750Z,7.60
2019-05-02T23:18:38.101Z,7.27
2019-05-02T23:21:04.354Z,7.37
2019-05-02T23:23:32.766Z,6.80
2019-05-02T23:26:12.865Z,7.50
2019-05-02T23:28:42.293Z,6.97
2019-05-02T23:31:08.787Z,6.23
2019-05-02T23:33:53.075Z,7.27
2019-05-02T23:36:19.544Z,7.33
2019-05-02T23:38:45.698Z,7.43
2019-05-02T23:41:12.605Z,6.77
2019-05-02T23:43:39.083Z,7.00
2019-05-02T23:46:05.442Z,7.83
2019-05-02T23:48:32.639Z,6.97
2019-05-02T23:50:59.032Z,6.40
2019-05-02T23:53:25.333Z,7.30
2019-05-02T23:55:51.765Z,6.67
2019-05-02T23:58:18.141Z,7.40
